sensor_id;sensor_type;location;lat;lon;timestamp;P1;durP1;ratioP1;P2;durP2;ratioP2
68178;SDS011;69812;42.632;23.440;2023-07-20T00:01:52;5.88;;;2.08;;
68178;SDS011;69812;42.632;23.440;2023-07-20T00:04:27;6.25;;;1.73;;
68178;SDS011;69812;42.632;23.440;2023-07-20T00:06:55;6.05;;;1.90;;
68178;SDS011;69812;42.632;23.440;2023-07-20T00:09:30;6.60;;;1.80;;
68178;SDS011;69812;42.632;23.440;2023-07-20T00:11:58;8.00;;;2.15;;
68178;SDS011;69812;42.632;23.440;2023-07-20T00:14:26;7.43;;;1.92;;
68178;SDS011;69812;42.632;23.440;2023-07-20T00:16:54;9.07;;;2.10;;
68178;SDS011;69812;42.632;23.440;2023-07-20T00:19:29;6.30;;;2.22;;
68178;SDS011;69812;42.632;23.440;2023-07-20T00:24:27;7.28;;;2.33;;
68178;SDS011;69812;42.632;23.440;2023-07-20T00:26:55;7.18;;;1.98;;
68178;SDS011;69812;42.632;23.440;2023-07-20T00:29:41;5.13;;;2.00;;
68178;SDS011;69812;42.632;23.440;2023-07-20T00:32:06;7.50;;;2.13;;
68178;SDS011;69812;42.632;23.440;2023-07-20T00:34:44;8.18;;;2.47;;
68178;SDS011;69812;42.632;23.440;2023-07-20T00:37:18;8.27;;;2.20;;
68178;SDS011;69812;42.632;23.440;2023-07-20T00:39:53;9.75;;;2.28;;
68178;SDS011;69812;42.632;23.440;2023-07-20T00:42:21;6.47;;;2.05;;
68178;SDS011;69812;42.632;23.440;2023-07-20T00:44:51;5.32;;;1.80;;
68178;SDS011;69812;42.632;23.440;2023-07-20T00:47:19;4.10;;;1.67;;
68178;SDS011;69812;42.632;23.440;2023-07-20T00:49:47;10.35;;;1.85;;
68178;SDS011;69812;42.632;23.440;2023-07-20T00:52:15;6.47;;;2.05;;
68178;SDS011;69812;42.632;23.440;2023-07-20T00:54:43;5.53;;;1.90;;
68178;SDS011;69812;42.632;23.440;2023-07-20T00:57:11;6.30;;;1.95;;
68178;SDS011;69812;42.632;23.440;2023-07-20T00:59:39;6.20;;;1.77;;
68178;SDS011;69812;42.632;23.440;2023-07-20T01:02:07;4.43;;;1.85;;
68178;SDS011;69812;42.632;23.440;2023-07-20T01:04:35;7.35;;;2.17;;
68178;SDS011;69812;42.632;23.440;2023-07-20T01:07:07;6.88;;;2.35;;
68178;SDS011;69812;42.632;23.440;2023-07-20T01:09:48;6.78;;;2.22;;
68178;SDS011;69812;42.632;23.440;2023-07-20T01:12:26;6.25;;;2.60;;
68178;SDS011;69812;42.632;23.440;2023-07-20T01:15:00;8.50;;;2.22;;
68178;SDS011;69812;42.632;23.440;2023-07-20T01:17:28;6.80;;;2.20;;
68178;SDS011;69812;42.632;23.440;2023-07-20T01:19:57;4.03;;;2.22;;
68178;SDS011;69812;42.632;23.440;2023-07-20T01:28:46;6.45;;;2.25;;
68178;SDS011;69812;42.632;23.440;2023-07-20T01:31:24;7.47;;;2.15;;
68178;SDS011;69812;42.632;23.440;2023-07-20T01:33:59;5.90;;;2.45;;
68178;SDS011;69812;42.632;23.440;2023-07-20T01:36:34;5.85;;;2.60;;
68178;SDS011;69812;42.632;23.440;2023-07-20T01:39:03;4.25;;;2.05;;
68178;SDS011;69812;42.632;23.440;2023-07-20T01:41:38;6.03;;;2.35;;
68178;SDS011;69812;42.632;23.440;2023-07-20T01:44:04;8.10;;;2.45;;
68178;SDS011;69812;42.632;23.440;2023-07-20T01:46:32;6.78;;;2.30;;
68178;SDS011;69812;42.632;23.440;2023-07-20T01:49:00;7.82;;;2.38;;
68178;SDS011;69812;42.632;23.440;2023-07-20T01:53:58;7.73;;;2.10;;
68178;SDS011;69812;42.632;23.440;2023-07-20T01:56:26;5.88;;;2.22;;
68178;SDS011;69812;42.632;23.440;2023-07-20T01:58:54;5.22;;;2.38;;
68178;SDS011;69812;42.632;23.440;2023-07-20T02:03:50;4.88;;;2.40;;
68178;SDS011;69812;42.632;23.440;2023-07-20T02:06:18;8.68;;;2.58;;
68178;SDS011;69812;42.632;23.440;2023-07-20T02:08:43;7.45;;;2.55;;
68178;SDS011;69812;42.632;23.440;2023-07-20T02:11:12;4.95;;;2.60;;
68178;SDS011;69812;42.632;23.440;2023-07-20T02:13:47;4.43;;;2.22;;
68178;SDS011;69812;42.632;23.440;2023-07-20T02:16:22;7.53;;;2.60;;
68178;SDS011;69812;42.632;23.440;2023-07-20T02:18:50;5.60;;;2.65;;
68178;SDS011;69812;42.632;23.440;2023-07-20T02:21:15;6.53;;;2.55;;
68178;SDS011;69812;42.632;23.440;2023-07-20T02:23:43;8.07;;;2.70;;
68178;SDS011;69812;42.632;23.440;2023-07-20T02:26:17;8.30;;;2.30;;
68178;SDS011;69812;42.632;23.440;2023-07-20T02:28:45;6.15;;;2.80;;
68178;SDS011;69812;42.632;23.440;2023-07-20T02:31:10;5.22;;;2.60;;
68178;SDS011;69812;42.632;23.440;2023-07-20T02:33:45;9.07;;;2.65;;
68178;SDS011;69812;42.632;23.440;2023-07-20T02:36:10;6.78;;;2.60;;
68178;SDS011;69812;42.632;23.440;2023-07-20T02:38:38;6.72;;;2.60;;
68178;SDS011;69812;42.632;23.440;2023-07-20T02:41:06;7.60;;;3.00;;
68178;SDS011;69812;42.632;23.440;2023-07-20T02:43:34;8.18;;;2.85;;
68178;SDS011;69812;42.632;23.440;2023-07-20T02:46:06;8.95;;;2.85;;
68178;SDS011;69812;42.632;23.440;2023-07-20T02:48:34;8.27;;;3.10;;
68178;SDS011;69812;42.632;23.440;2023-07-20T02:51:00;8.23;;;2.72;;
68178;SDS011;69812;42.632;23.440;2023-07-20T02:53:25;9.57;;;3.00;;
68178;SDS011;69812;42.632;23.440;2023-07-20T02:55:57;5.85;;;2.95;;
68178;SDS011;69812;42.632;23.440;2023-07-20T02:58:25;5.68;;;3.10;;
68178;SDS011;69812;42.632;23.440;2023-07-20T03:00:53;8.07;;;2.85;;
68178;SDS011;69812;42.632;23.440;2023-07-20T03:03:21;7.15;;;2.90;;
68178;SDS011;69812;42.632;23.440;2023-07-20T03:05:51;7.78;;;3.05;;
68178;SDS011;69812;42.632;23.440;2023-07-20T03:08:19;8.23;;;3.05;;
68178;SDS011;69812;42.632;23.440;2023-07-20T03:10:47;4.65;;;2.47;;
68178;SDS011;69812;42.632;23.440;2023-07-20T03:13:19;7.88;;;3.10;;
68178;SDS011;69812;42.632;23.440;2023-07-20T03:15:47;6.00;;;3.30;;
68178;SDS011;69812;42.632;23.440;2023-07-20T03:18:15;4.95;;;3.15;;
68178;SDS011;69812;42.632;23.440;2023-07-20T03:20:43;12.10;;;3.10;;
68178;SDS011;69812;42.632;23.440;2023-07-20T03:23:10;9.80;;;3.45;;
68178;SDS011;69812;42.632;23.440;2023-07-20T03:25:37;9.10;;;3.22;;
68178;SDS011;69812;42.632;23.440;2023-07-20T03:28:03;7.38;;;3.00;;
68178;SDS011;69812;42.632;23.440;2023-07-20T03:30:31;7.47;;;2.88;;
68178;SDS011;69812;42.632;23.440;2023-07-20T03:32:59;7.32;;;2.92;;
68178;SDS011;69812;42.632;23.440;2023-07-20T03:35:25;7.40;;;2.85;;
68178;SDS011;69812;42.632;23.440;2023-07-20T03:37:53;7.65;;;3.13;;
68178;SDS011;69812;42.632;23.440;2023-07-20T03:40:22;7.80;;;3.15;;
68178;SDS011;69812;42.632;23.440;2023-07-20T03:42:47;6.57;;;2.83;;
68178;SDS011;69812;42.632;23.440;2023-07-20T03:45:18;6.22;;;3.22;;
68178;SDS011;69812;42.632;23.440;2023-07-20T03:47:49;5.82;;;3.15;;
68178;SDS011;69812;42.632;23.440;2023-07-20T03:50:14;7.38;;;3.63;;
68178;SDS011;69812;42.632;23.440;2023-07-20T03:52:40;6.28;;;3.22;;
68178;SDS011;69812;42.632;23.440;2023-07-20T03:55:05;10.18;;;3.35;;
68178;SDS011;69812;42.632;23.440;2023-07-20T03:57:42;6.38;;;3.40;;
68178;SDS011;69812;42.632;23.440;2023-07-20T04:00:08;9.60;;;3.03;;
68178;SDS011;69812;42.632;23.440;2023-07-20T04:02:42;9.10;;;3.40;;
68178;SDS011;69812;42.632;23.440;2023-07-20T04:05:08;6.45;;;3.08;;
68178;SDS011;69812;42.632;23.440;2023-07-20T04:07:33;6.38;;;2.92;;
68178;SDS011;69812;42.632;23.440;2023-07-20T04:10:01;8.55;;;3.10;;
68178;SDS011;69812;42.632;23.440;2023-07-20T04:12:31;6.95;;;3.60;;
68178;SDS011;69812;42.632;23.440;2023-07-20T04:14:56;8.57;;;3.35;;
68178;SDS011;69812;42.632;23.440;2023-07-20T04:17:28;9.57;;;3.13;;
68178;SDS011;69812;42.632;23.440;2023-07-20T04:19:55;7.13;;;2.85;;
68178;SDS011;69812;42.632;23.440;2023-07-20T04:22:24;7.97;;;3.15;;
68178;SDS011;69812;42.632;23.440;2023-07-20T04:24:54;7.63;;;3.42;;
68178;SDS011;69812;42.632;23.440;2023-07-20T04:27:24;6.88;;;2.97;;
68178;SDS011;69812;42.632;23.440;2023-07-20T04:29:52;10.05;;;3.45;;
68178;SDS011;69812;42.632;23.440;2023-07-20T04:32:20;7.78;;;3.15;;
68178;SDS011;69812;42.632;23.440;2023-07-20T04:34:48;6.97;;;2.80;;
68178;SDS011;69812;42.632;23.440;2023-07-20T04:37:19;7.50;;;3.10;;
68178;SDS011;69812;42.632;23.440;2023-07-20T04:39:46;6.30;;;3.08;;
68178;SDS011;69812;42.632;23.440;2023-07-20T04:42:12;10.82;;;3.25;;
68178;SDS011;69812;42.632;23.440;2023-07-20T04:44:45;7.25;;;3.10;;
68178;SDS011;69812;42.632;23.440;2023-07-20T04:47:12;5.43;;;3.30;;
68178;SDS011;69812;42.632;23.440;2023-07-20T04:49:49;8.48;;;3.22;;
68178;SDS011;69812;42.632;23.440;2023-07-20T04:52:14;7.00;;;3.53;;
68178;SDS011;69812;42.632;23.440;2023-07-20T04:54:49;9.43;;;3.85;;
68178;SDS011;69812;42.632;23.440;2023-07-20T04:57:31;9.10;;;3.70;;
68178;SDS011;69812;42.632;23.440;2023-07-20T04:59:59;12.30;;;3.67;;
68178;SDS011;69812;42.632;23.440;2023-07-20T05:04:52;10.77;;;3.65;;
68178;SDS011;69812;42.632;23.440;2023-07-20T05:07:18;9.50;;;3.58;;
68178;SDS011;69812;42.632;23.440;2023-07-20T05:12:08;9.10;;;3.03;;
68178;SDS011;69812;42.632;23.440;2023-07-20T05:16:59;5.45;;;2.85;;
68178;SDS011;69812;42.632;23.440;2023-07-20T05:19:32;5.63;;;2.85;;
68178;SDS011;69812;42.632;23.440;2023-07-20T05:21:57;5.90;;;3.00;;
68178;SDS011;69812;42.632;23.440;2023-07-20T05:24:25;8.90;;;3.35;;
68178;SDS011;69812;42.632;23.440;2023-07-20T05:26:54;11.05;;;3.47;;
68178;SDS011;69812;42.632;23.440;2023-07-20T05:29:19;7.15;;;3.30;;
68178;SDS011;69812;42.632;23.440;2023-07-20T05:31:44;7.10;;;3.63;;
68178;SDS011;69812;42.632;23.440;2023-07-20T05:34:18;8.32;;;3.17;;
68178;SDS011;69812;42.632;23.440;2023-07-20T05:39:36;8.85;;;3.17;;
68178;SDS011;69812;42.632;23.440;2023-07-20T05:42:01;6.00;;;2.72;;
68178;SDS011;69812;42.632;23.440;2023-07-20T05:44:29;6.35;;;2.55;;
68178;SDS011;69812;42.632;23.440;2023-07-20T05:46:54;8.63;;;3.28;;
68178;SDS011;69812;42.632;23.440;2023-07-20T05:49:23;7.22;;;3.08;;
68178;SDS011;69812;42.632;23.440;2023-07-20T05:51:53;8.52;;;3.00;;
68178;SDS011;69812;42.632;23.440;2023-07-20T05:54:25;5.35;;;2.63;;
68178;SDS011;69812;42.632;23.440;2023-07-20T05:56:54;8.95;;;2.90;;
68178;SDS011;69812;42.632;23.440;2023-07-20T05:59:19;11.88;;;3.42;;
68178;SDS011;69812;42.632;23.440;2023-07-20T06:01:45;10.15;;;2.95;;
68178;SDS011;69812;42.632;23.440;2023-07-20T06:04:14;8.93;;;3.42;;
68178;SDS011;69812;42.632;23.440;2023-07-20T06:06:41;7.93;;;3.20;;
68178;SDS011;69812;42.632;23.440;2023-07-20T06:09:07;8.32;;;3.05;;
68178;SDS011;69812;42.632;23.440;2023-07-20T06:11:42;8.77;;;3.05;;
68178;SDS011;69812;42.632;23.440;2023-07-20T06:14:10;5.93;;;2.85;;
68178;SDS011;69812;42.632;23.440;2023-07-20T06:16:47;7.45;;;3.10;;
68178;SDS011;69812;42.632;23.440;2023-07-20T06:19:15;6.97;;;3.22;;
68178;SDS011;69812;42.632;23.440;2023-07-20T06:21:53;8.82;;;3.42;;
68178;SDS011;69812;42.632;23.440;2023-07-20T06:24:21;8.05;;;3.30;;
68178;SDS011;69812;42.632;23.440;2023-07-20T06:26:48;7.82;;;3.47;;
68178;SDS011;69812;42.632;23.440;2023-07-20T06:29:22;8.60;;;4.05;;
68178;SDS011;69812;42.632;23.440;2023-07-20T06:31:47;11.32;;;4.28;;
68178;SDS011;69812;42.632;23.440;2023-07-20T06:34:13;13.52;;;4.30;;
68178;SDS011;69812;42.632;23.440;2023-07-20T06:36:41;8.68;;;4.22;;
68178;SDS011;69812;42.632;23.440;2023-07-20T06:39:06;7.60;;;4.85;;
68178;SDS011;69812;42.632;23.440;2023-07-20T06:41:35;7.78;;;4.50;;
68178;SDS011;69812;42.632;23.440;2023-07-20T06:44:02;11.35;;;5.45;;
68178;SDS011;69812;42.632;23.440;2023-07-20T06:46:28;7.00;;;4.63;;
68178;SDS011;69812;42.632;23.440;2023-07-20T06:48:58;10.13;;;4.38;;
68178;SDS011;69812;42.632;23.440;2023-07-20T06:51:33;9.35;;;4.35;;
68178;SDS011;69812;42.632;23.440;2023-07-20T06:53:59;9.65;;;4.85;;
68178;SDS011;69812;42.632;23.440;2023-07-20T06:56:36;9.02;;;4.50;;
68178;SDS011;69812;42.632;23.440;2023-07-20T06:59:09;8.30;;;4.40;;
68178;SDS011;69812;42.632;23.440;2023-07-20T07:01:35;10.20;;;5.13;;
68178;SDS011;69812;42.632;23.440;2023-07-20T07:04:00;10.50;;;4.22;;
68178;SDS011;69812;42.632;23.440;2023-07-20T07:06:29;9.48;;;4.50;;
68178;SDS011;69812;42.632;23.440;2023-07-20T07:08:57;9.57;;;4.63;;
68178;SDS011;69812;42.632;23.440;2023-07-20T07:11:33;10.27;;;4.50;;
68178;SDS011;69812;42.632;23.440;2023-07-20T07:14:04;11.30;;;4.18;;
68178;SDS011;69812;42.632;23.440;2023-07-20T07:16:29;12.38;;;4.53;;
68178;SDS011;69812;42.632;23.440;2023-07-20T07:18:59;9.90;;;4.07;;
68178;SDS011;69812;42.632;23.440;2023-07-20T07:21:27;7.07;;;3.88;;
68178;SDS011;69812;42.632;23.440;2023-07-20T07:23:55;7.60;;;4.10;;
68178;SDS011;69812;42.632;23.440;2023-07-20T07:26:22;10.82;;;4.22;;
68178;SDS011;69812;42.632;23.440;2023-07-20T07:28:48;11.48;;;4.00;;
68178;SDS011;69812;42.632;23.440;2023-07-20T07:31:16;10.43;;;4.45;;
68178;SDS011;69812;42.632;23.440;2023-07-20T07:33:55;9.32;;;3.50;;
68178;SDS011;69812;42.632;23.440;2023-07-20T07:36:48;7.68;;;3.70;;
68178;SDS011;69812;42.632;23.440;2023-07-20T07:39:19;10.30;;;4.28;;
68178;SDS011;69812;42.632;23.440;2023-07-20T07:41:44;8.07;;;4.03;;
68178;SDS011;69812;42.632;23.440;2023-07-20T07:44:14;9.82;;;3.95;;
68178;SDS011;69812;42.632;23.440;2023-07-20T07:46:50;8.60;;;4.38;;
68178;SDS011;69812;42.632;23.440;2023-07-20T07:49:21;9.98;;;4.13;;
68178;SDS011;69812;42.632;23.440;2023-07-20T07:51:49;7.03;;;4.40;;
68178;SDS011;69812;42.632;23.440;2023-07-20T07:54:17;12.02;;;4.68;;
68178;SDS011;69812;42.632;23.440;2023-07-20T07:56:43;7.20;;;4.35;;
68178;SDS011;69812;42.632;23.440;2023-07-20T07:59:19;8.18;;;4.65;;
68178;SDS011;69812;42.632;23.440;2023-07-20T08:01:44;8.23;;;4.35;;
68178;SDS011;69812;42.632;23.440;2023-07-20T08:04:09;9.48;;;3.63;;
68178;SDS011;69812;42.632;23.440;2023-07-20T08:06:35;8.20;;;4.65;;
68178;SDS011;69812;42.632;23.440;2023-07-20T08:09:05;6.55;;;4.05;;
68178;SDS011;69812;42.632;23.440;2023-07-20T08:11:33;8.90;;;4.80;;
68178;SDS011;69812;42.632;23.440;2023-07-20T08:14:01;7.97;;;3.97;;
68178;SDS011;69812;42.632;23.440;2023-07-20T08:16:27;9.98;;;4.55;;
68178;SDS011;69812;42.632;23.440;2023-07-20T08:18:55;9.43;;;4.30;;
68178;SDS011;69812;42.632;23.440;2023-07-20T08:21:22;8.02;;;4.78;;
68178;SDS011;69812;42.632;23.440;2023-07-20T08:23:51;7.97;;;4.20;;
68178;SDS011;69812;42.632;23.440;2023-07-20T08:26:19;12.15;;;5.07;;
68178;SDS011;69812;42.632;23.440;2023-07-20T08:28:54;8.02;;;4.18;;
68178;SDS011;69812;42.632;23.440;2023-07-20T08:31:24;11.60;;;5.25;;
68178;SDS011;69812;42.632;23.440;2023-07-20T08:34:00;11.25;;;4.35;;
68178;SDS011;69812;42.632;23.440;2023-07-20T08:36:28;10.32;;;4.60;;
68178;SDS011;69812;42.632;23.440;2023-07-20T08:38:57;7.43;;;3.85;;
68178;SDS011;69812;42.632;23.440;2023-07-20T08:41:30;10.50;;;4.05;;
68178;SDS011;69812;42.632;23.440;2023-07-20T08:43:58;10.32;;;4.25;;
68178;SDS011;69812;42.632;23.440;2023-07-20T08:46:30;8.90;;;4.25;;
68178;SDS011;69812;42.632;23.440;2023-07-20T08:48:56;7.97;;;3.95;;
68178;SDS011;69812;42.632;23.440;2023-07-20T08:51:22;8.93;;;3.60;;
68178;SDS011;69812;42.632;23.440;2023-07-20T08:53:49;8.27;;;3.90;;
68178;SDS011;69812;42.632;23.440;2023-07-20T08:56:19;7.05;;;3.03;;
68178;SDS011;69812;42.632;23.440;2023-07-20T08:58:49;8.43;;;3.15;;
68178;SDS011;69812;42.632;23.440;2023-07-20T09:01:27;8.48;;;2.83;;
68178;SDS011;69812;42.632;23.440;2023-07-20T09:03:56;7.25;;;2.60;;
68178;SDS011;69812;42.632;23.440;2023-07-20T09:06:39;6.78;;;2.80;;
68178;SDS011;69812;42.632;23.440;2023-07-20T09:09:04;5.95;;;2.65;;
68178;SDS011;69812;42.632;23.440;2023-07-20T09:11:39;6.82;;;2.22;;
68178;SDS011;69812;42.632;23.440;2023-07-20T09:14:13;8.75;;;2.78;;
68178;SDS011;69812;42.632;23.440;2023-07-20T09:19:27;9.32;;;2.83;;
68178;SDS011;69812;42.632;23.440;2023-07-20T09:22:02;10.77;;;2.75;;
68178;SDS011;69812;42.632;23.440;2023-07-20T09:24:38;7.93;;;2.50;;
68178;SDS011;69812;42.632;23.440;2023-07-20T09:27:09;8.52;;;2.90;;
68178;SDS011;69812;42.632;23.440;2023-07-20T09:29:46;8.10;;;2.50;;
68178;SDS011;69812;42.632;23.440;2023-07-20T09:32:19;6.20;;;2.20;;
68178;SDS011;69812;42.632;23.440;2023-07-20T09:34:49;6.00;;;2.42;;
68178;SDS011;69812;42.632;23.440;2023-07-20T09:37:23;4.82;;;2.25;;
68178;SDS011;69812;42.632;23.440;2023-07-20T09:39:51;7.28;;;2.25;;
68178;SDS011;69812;42.632;23.440;2023-07-20T09:42:18;6.05;;;2.28;;
68178;SDS011;69812;42.632;23.440;2023-07-20T09:44:54;6.68;;;2.25;;
68178;SDS011;69812;42.632;23.440;2023-07-20T09:47:23;5.90;;;2.20;;
68178;SDS011;69812;42.632;23.440;2023-07-20T09:49:51;10.23;;;2.53;;
68178;SDS011;69812;42.632;23.440;2023-07-20T09:52:41;7.75;;;2.38;;
68178;SDS011;69812;42.632;23.440;2023-07-20T09:55:08;6.85;;;2.30;;
68178;SDS011;69812;42.632;23.440;2023-07-20T09:57:44;6.75;;;2.08;;
68178;SDS011;69812;42.632;23.440;2023-07-20T10:00:10;8.30;;;2.72;;
68178;SDS011;69812;42.632;23.440;2023-07-20T10:02:43;7.10;;;2.50;;
68178;SDS011;69812;42.632;23.440;2023-07-20T10:05:10;8.07;;;2.30;;
68178;SDS011;69812;42.632;23.440;2023-07-20T10:07:47;7.10;;;2.13;;
68178;SDS011;69812;42.632;23.440;2023-07-20T10:10:19;6.35;;;2.03;;
68178;SDS011;69812;42.632;23.440;2023-07-20T10:12:45;5.65;;;2.22;;
68178;SDS011;69812;42.632;23.440;2023-07-20T10:17:46;6.53;;;2.22;;
68178;SDS011;69812;42.632;23.440;2023-07-20T10:20:20;5.72;;;2.22;;
68178;SDS011;69812;42.632;23.440;2023-07-20T10:22:49;5.53;;;2.42;;
68178;SDS011;69812;42.632;23.440;2023-07-20T10:25:27;9.18;;;2.63;;
68178;SDS011;69812;42.632;23.440;2023-07-20T10:28:04;7.97;;;2.85;;
68178;SDS011;69812;42.632;23.440;2023-07-20T10:30:30;7.13;;;2.55;;
68178;SDS011;69812;42.632;23.440;2023-07-20T10:33:01;6.03;;;2.15;;
68178;SDS011;69812;42.632;23.440;2023-07-20T10:35:38;7.80;;;2.53;;
68178;SDS011;69812;42.632;23.440;2023-07-20T10:38:20;7.03;;;2.28;;
68178;SDS011;69812;42.632;23.440;2023-07-20T10:41:21;6.93;;;2.17;;
68178;SDS011;69812;42.632;23.440;2023-07-20T10:43:55;3.47;;;1.98;;
68178;SDS011;69812;42.632;23.440;2023-07-20T10:46:33;7.38;;;2.03;;
68178;SDS011;69812;42.632;23.440;2023-07-20T10:49:08;6.63;;;1.88;;
68178;SDS011;69812;42.632;23.440;2023-07-20T10:51:43;6.38;;;2.47;;
68178;SDS011;69812;42.632;23.440;2023-07-20T10:56:51;6.70;;;2.22;;
68178;SDS011;69812;42.632;23.440;2023-07-20T10:59:40;8.00;;;2.15;;
68178;SDS011;69812;42.632;23.440;2023-07-20T11:02:08;5.00;;;2.25;;
68178;SDS011;69812;42.632;23.440;2023-07-20T11:07:07;5.82;;;2.05;;
68178;SDS011;69812;42.632;23.440;2023-07-20T11:09:40;6.60;;;1.90;;
68178;SDS011;69812;42.632;23.440;2023-07-20T11:12:11;8.20;;;2.65;;
68178;SDS011;69812;42.632;23.440;2023-07-20T11:14:56;9.00;;;2.92;;
68178;SDS011;69812;42.632;23.440;2023-07-20T11:17:29;6.97;;;2.28;;
68178;SDS011;69812;42.632;23.440;2023-07-20T11:19:59;5.97;;;2.25;;
68178;SDS011;69812;42.632;23.440;2023-07-20T11:22:33;5.30;;;1.92;;
68178;SDS011;69812;42.632;23.440;2023-07-20T11:25:19;4.97;;;2.55;;
68178;SDS011;69812;42.632;23.440;2023-07-20T11:30:16;4.05;;;1.95;;
68178;SDS011;69812;42.632;23.440;2023-07-20T11:32:47;6.10;;;2.33;;
68178;SDS011;69812;42.632;23.440;2023-07-20T11:35:13;5.88;;;2.47;;
68178;SDS011;69812;42.632;23.440;2023-07-20T11:37:43;9.65;;;2.67;;
68178;SDS011;69812;42.632;23.440;2023-07-20T11:40:11;9.15;;;2.67;;
68178;SDS011;69812;42.632;23.440;2023-07-20T11:42:39;9.27;;;3.83;;
68178;SDS011;69812;42.632;23.440;2023-07-20T11:45:13;11.57;;;3.22;;
68178;SDS011;69812;42.632;23.440;2023-07-20T11:47:42;6.30;;;3.15;;
68178;SDS011;69812;42.632;23.440;2023-07-20T11:50:10;11.05;;;3.50;;
68178;SDS011;69812;42.632;23.440;2023-07-20T11:52:38;8.15;;;3.83;;
68178;SDS011;69812;42.632;23.440;2023-07-20T11:55:07;7.65;;;4.22;;
68178;SDS011;69812;42.632;23.440;2023-07-20T11:57:33;10.25;;;4.28;;
68178;SDS011;69812;42.632;23.440;2023-07-20T12:00:03;8.57;;;4.15;;
68178;SDS011;69812;42.632;23.440;2023-07-20T12:02:44;10.35;;;4.72;;
68178;SDS011;69812;42.632;23.440;2023-07-20T12:05:12;8.25;;;3.95;;
68178;SDS011;69812;42.632;23.440;2023-07-20T12:07:40;8.55;;;3.92;;
68178;SDS011;69812;42.632;23.440;2023-07-20T12:10:23;8.63;;;3.92;;
68178;SDS011;69812;42.632;23.440;2023-07-20T12:13:04;9.52;;;4.57;;
68178;SDS011;69812;42.632;23.440;2023-07-20T12:15:37;9.82;;;4.40;;
68178;SDS011;69812;42.632;23.440;2023-07-20T12:18:10;10.38;;;4.28;;
68178;SDS011;69812;42.632;23.440;2023-07-20T12:20:41;7.50;;;4.13;;
68178;SDS011;69812;42.632;23.440;2023-07-20T12:23:12;8.23;;;3.83;;
68178;SDS011;69812;42.632;23.440;2023-07-20T12:25:43;9.70;;;4.30;;
68178;SDS011;69812;42.632;23.440;2023-07-20T12:28:17;9.15;;;4.53;;
68178;SDS011;69812;42.632;23.440;2023-07-20T12:30:47;10.70;;;5.32;;
68178;SDS011;69812;42.632;23.440;2023-07-20T12:33:33;11.65;;;4.43;;
68178;SDS011;69812;42.632;23.440;2023-07-20T12:36:11;8.45;;;4.20;;
68178;SDS011;69812;42.632;23.440;2023-07-20T12:38:38;6.82;;;3.25;;
68178;SDS011;69812;42.632;23.440;2023-07-20T12:41:04;6.07;;;3.05;;
68178;SDS011;69812;42.632;23.440;2023-07-20T12:43:31;8.05;;;3.65;;
68178;SDS011;69812;42.632;23.440;2023-07-20T12:46:06;9.85;;;3.50;;
68178;SDS011;69812;42.632;23.440;2023-07-20T12:48:35;8.30;;;2.60;;
68178;SDS011;69812;42.632;23.440;2023-07-20T12:51:08;8.48;;;3.15;;
68178;SDS011;69812;42.632;23.440;2023-07-20T12:53:36;9.30;;;2.92;;
68178;SDS011;69812;42.632;23.440;2023-07-20T12:56:06;8.73;;;2.90;;
68178;SDS011;69812;42.632;23.440;2023-07-20T12:58:34;7.38;;;3.53;;
68178;SDS011;69812;42.632;23.440;2023-07-20T13:01:00;6.78;;;3.10;;
68178;SDS011;69812;42.632;23.440;2023-07-20T13:03:33;8.52;;;2.55;;
68178;SDS011;69812;42.632;23.440;2023-07-20T13:05:59;6.50;;;2.47;;
68178;SDS011;69812;42.632;23.440;2023-07-20T13:08:45;11.50;;;3.70;;
68178;SDS011;69812;42.632;23.440;2023-07-20T13:11:15;11.07;;;3.60;;
68178;SDS011;69812;42.632;23.440;2023-07-20T13:13:47;7.88;;;2.80;;
68178;SDS011;69812;42.632;23.440;2023-07-20T13:16:20;8.30;;;3.03;;
68178;SDS011;69812;42.632;23.440;2023-07-20T13:18:48;7.90;;;3.10;;
68178;SDS011;69812;42.632;23.440;2023-07-20T13:21:15;5.93;;;2.33;;
68178;SDS011;69812;42.632;23.440;2023-07-20T13:23:54;6.90;;;2.92;;
68178;SDS011;69812;42.632;23.440;2023-07-20T13:26:21;9.40;;;3.20;;
68178;SDS011;69812;42.632;23.440;2023-07-20T13:28:50;8.57;;;2.53;;
68178;SDS011;69812;42.632;23.440;2023-07-20T13:31:20;10.20;;;3.13;;
68178;SDS011;69812;42.632;23.440;2023-07-20T13:33:54;7.55;;;2.67;;
68178;SDS011;69812;42.632;23.440;2023-07-20T13:36:30;5.13;;;2.65;;
68178;SDS011;69812;42.632;23.440;2023-07-20T13:38:58;7.18;;;2.60;;
68178;SDS011;69812;42.632;23.440;2023-07-20T13:41:24;8.70;;;2.70;;
68178;SDS011;69812;42.632;23.440;2023-07-20T13:43:49;9.65;;;2.83;;
68178;SDS011;69812;42.632;23.440;2023-07-20T13:46:15;5.60;;;2.28;;
68178;SDS011;69812;42.632;23.440;2023-07-20T13:48:45;7.43;;;2.75;;
68178;SDS011;69812;42.632;23.440;2023-07-20T13:51:31;6.05;;;2.95;;
68178;SDS011;69812;42.632;23.440;2023-07-20T13:54:00;6.85;;;2.80;;
68178;SDS011;69812;42.632;23.440;2023-07-20T13:56:28;10.30;;;2.30;;
68178;SDS011;69812;42.632;23.440;2023-07-20T13:58:54;9.18;;;2.58;;
68178;SDS011;69812;42.632;23.440;2023-07-20T14:01:19;7.70;;;2.33;;
68178;SDS011;69812;42.632;23.440;2023-07-20T14:03:47;10.60;;;2.63;;
68178;SDS011;69812;42.632;23.440;2023-07-20T14:06:12;7.00;;;2.25;;
68178;SDS011;69812;42.632;23.440;2023-07-20T14:08:51;8.50;;;2.58;;
68178;SDS011;69812;42.632;23.440;2023-07-20T14:11:25;5.63;;;1.92;;
68178;SDS011;69812;42.632;23.440;2023-07-20T14:13:51;10.38;;;2.60;;
68178;SDS011;69812;42.632;23.440;2023-07-20T14:16:20;8.68;;;2.03;;
68178;SDS011;69812;42.632;23.440;2023-07-20T14:18:46;7.78;;;2.22;;
68178;SDS011;69812;42.632;23.440;2023-07-20T14:21:15;6.25;;;2.40;;
68178;SDS011;69812;42.632;23.440;2023-07-20T14:23:41;6.70;;;2.08;;
68178;SDS011;69812;42.632;23.440;2023-07-20T14:26:11;5.53;;;2.40;;
68178;SDS011;69812;42.632;23.440;2023-07-20T14:28:36;4.07;;;2.00;;
68178;SDS011;69812;42.632;23.440;2023-07-20T14:31:03;8.40;;;2.35;;
68178;SDS011;69812;42.632;23.440;2023-07-20T14:33:32;6.18;;;1.95;;
68178;SDS011;69812;42.632;23.440;2023-07-20T14:36:13;7.60;;;2.13;;
68178;SDS011;69812;42.632;23.440;2023-07-20T14:38:41;7.45;;;2.00;;
68178;SDS011;69812;42.632;23.440;2023-07-20T14:41:08;6.50;;;2.00;;
68178;SDS011;69812;42.632;23.440;2023-07-20T14:43:39;8.38;;;2.33;;
68178;SDS011;69812;42.632;23.440;2023-07-20T14:46:10;8.25;;;2.20;;
68178;SDS011;69812;42.632;23.440;2023-07-20T14:48:35;8.18;;;2.33;;
68178;SDS011;69812;42.632;23.440;2023-07-20T14:51:03;8.23;;;2.70;;
68178;SDS011;69812;42.632;23.440;2023-07-20T14:53:33;5.28;;;2.08;;
68178;SDS011;69812;42.632;23.440;2023-07-20T14:56:01;7.03;;;1.80;;
68178;SDS011;69812;42.632;23.440;2023-07-20T14:58:27;6.95;;;2.03;;
68178;SDS011;69812;42.632;23.440;2023-07-20T15:00:52;7.35;;;2.20;;
68178;SDS011;69812;42.632;23.440;2023-07-20T15:03:42;5.75;;;2.30;;
68178;SDS011;69812;42.632;23.440;2023-07-20T15:06:18;8.52;;;2.60;;
68178;SDS011;69812;42.632;23.440;2023-07-20T15:08:46;7.38;;;2.47;;
68178;SDS011;69812;42.632;23.440;2023-07-20T15:13:53;6.28;;;2.05;;
68178;SDS011;69812;42.632;23.440;2023-07-20T15:16:23;5.90;;;1.95;;
68178;SDS011;69812;42.632;23.440;2023-07-20T15:18:52;6.25;;;2.40;;
68178;SDS011;69812;42.632;23.440;2023-07-20T15:21:17;8.65;;;2.42;;
68178;SDS011;69812;42.632;23.440;2023-07-20T15:24:02;5.28;;;2.13;;
68178;SDS011;69812;42.632;23.440;2023-07-20T15:26:32;8.15;;;2.17;;
68178;SDS011;69812;42.632;23.440;2023-07-20T15:29:07;5.22;;;2.13;;
68178;SDS011;69812;42.632;23.440;2023-07-20T15:31:33;5.95;;;2.08;;